Time;durP1;ratioP1;P1;durP2;ratioP2;P2;SDS_P1;SDS_P2;PMS_P1;PMS_P2;Temp;Humidity;BMP_temperature;BMP_pressure;BME280_temperature;BME280_humidity;BME280_pressure;Samples;Min_cycle;Max_cycle;Signal;HPM_P1;HPM_P2
2023/06/13 00:00:44;;;;;;;5.43;4.35;;;;;;;30.34;33.42;101345.84;5009694;28;96836;-74
2023/06/13 00:03:14;;;;;;;5.70;4.68;;;;;;;30.33;33.49;101353.31;5009339;28;98165;-74
2023/06/13 00:05:46;;;;;;;6.00;4.80;;;;;;;30.32;33.57;101346.06;5008163;28;96871;-74
2023/06/13 00:08:20;;;;;;;5.88;5.05;;;;;;;30.33;33.66;101358.84;5009927;28;96881;-74
2023/06/13 00:10:48;;;;;;;6.20;5.18;;;;;;;30.33;33.53;101344.13;5008485;28;96868;-74
2023/06/13 00:13:16;;;;;;;5.63;4.47;;;;;;;30.33;33.60;101347.75;5009115;28;96879;-74
2023/06/13 00:15:52;;;;;;;5.75;4.10;;;;;;;30.33;33.53;101342.22;5009263;28;96990;-74
2023/06/13 00:18:20;;;;;;;5.30;4.22;;;;;;;30.31;33.33;101344.38;5009639;28;96848;-74
2023/06/13 00:20:47;;;;;;;4.95;4.15;;;;;;;30.33;33.55;101346.91;5009884;28;97043;-74
2023/06/13 00:23:14;;;;;;;4.93;4.30;;;;;;;30.32;33.58;101342.44;5008591;28;97819;-74
2023/06/13 00:25:41;;;;;;;4.50;4.10;;;;;;;30.31;33.50;101344.38;5009842;28;96718;-74
2023/06/13 00:28:08;;;;;;;5.47;4.50;;;;;;;30.32;33.38;101331.34;5009902;28;96663;-74
2023/06/13 00:30:34;;;;;;;4.57;4.18;;;;;;;30.33;33.38;101333.06;5009031;28;97756;-74
2023/06/13 00:33:01;;;;;;;5.40;4.15;;;;;;;30.32;33.33;101328.59;4996702;28;96686;-74
2023/06/13 00:35:28;;;;;;;5.55;4.72;;;;;;;30.31;33.53;101340.75;5009364;28;97155;-74
2023/06/13 00:37:57;;;;;;;5.15;3.90;;;;;;;30.31;33.53;101336.06;5008059;28;97148;-74
2023/06/13 00:40:25;;;;;;;5.05;4.20;;;;;;;30.31;33.81;101337.97;5009345;28;96745;-74
2023/06/13 00:42:52;;;;;;;4.78;4.00;;;;;;;30.32;33.59;101336.91;5008736;28;96678;-74
2023/06/13 00:45:23;;;;;;;4.35;3.58;;;;;;;30.31;33.43;101329.66;5006973;28;97128;-75
2023/06/13 00:47:54;;;;;;;5.85;4.40;;;;;;;30.31;33.42;101330.50;5007590;28;96857;-74
2023/06/13 00:50:28;;;;;;;4.85;4.20;;;;;;;30.30;33.58;101337.13;5006406;28;97922;-74
2023/06/13 00:52:55;;;;;;;5.75;4.35;;;;;;;30.30;33.50;101337.13;4999757;28;97358;-74
2023/06/13 00:55:24;;;;;;;4.40;3.67;;;;;;;30.29;33.70;101331.81;4988745;28;96812;-74
2023/06/13 00:57:55;;;;;;;5.00;4.50;;;;;;;30.29;33.72;101338.19;5006712;28;96867;-74
2023/06/13 01:00:25;;;;;;;4.68;3.80;;;;;;;30.28;33.66;101336.50;5008421;28;96674;-74
2023/06/13 01:02:59;;;;;;;4.80;4.00;;;;;;;30.28;33.58;101328.19;5007940;28;97253;-74
2023/06/13 01:05:28;;;;;;;4.17;3.50;;;;;;;30.27;33.47;101332.03;5010318;28;96720;-74
2023/06/13 01:08:00;;;;;;;4.95;3.90;;;;;;;30.28;33.53;101332.88;5008516;28;96845;-74
2023/06/13 01:10:29;;;;;;;4.88;3.92;;;;;;;30.28;33.59;101325.44;4994151;28;98486;-74
2023/06/13 01:13:02;;;;;;;4.57;3.60;;;;;;;30.28;33.48;101325.44;5007112;28;98506;-75
2023/06/13 01:15:34;;;;;;;4.45;3.47;;;;;;;30.28;33.51;101324.56;5009483;28;97324;-73
2023/06/13 01:18:05;;;;;;;4.32;3.63;;;;;;;30.26;33.62;101319.25;5004593;28;97307;-74
2023/06/13 01:20:33;;;;;;;4.40;4.00;;;;;;;30.26;33.53;101319.25;5007837;28;98256;-74
2023/06/13 01:23:06;;;;;;;3.55;3.17;;;;;;;30.26;33.43;101313.72;5006085;28;98289;-74
2023/06/13 01:25:59;;;;;;;4.95;3.95;;;;;;;30.26;33.45;101313.72;5006291;28;96805;-74
2023/06/13 01:28:30;;;;;;;3.72;3.25;;;;;;;30.24;33.40;101315.88;5008407;28;96793;-74
2023/06/13 01:30:57;;;;;;;4.50;3.70;;;;;;;30.25;33.34;101317.56;5009062;28;97493;-74
2023/06/13 01:33:25;;;;;;;3.92;3.53;;;;;;;30.24;33.63;101312.25;5006139;28;100414;-74
2023/06/13 01:35:51;;;;;;;5.05;3.60;;;;;;;30.24;33.46;101317.78;5007043;28;96749;-74
2023/06/13 01:38:21;;;;;;;3.65;3.35;;;;;;;30.24;33.75;101318.63;5007368;28;96967;-74
2023/06/13 01:40:48;;;;;;;4.38;3.63;;;;;;;30.24;33.39;101326.94;4993793;28;97664;-74
2023/06/13 01:43:15;;;;;;;4.18;3.42;;;;;;;30.24;33.28;101315.03;5006611;28;97085;-74
2023/06/13 01:45:41;;;;;;;3.83;3.38;;;;;;;30.24;33.39;101324.19;5005804;28;97254;-74
2023/06/13 01:48:08;;;;;;;4.18;3.55;;;;;;;30.24;33.34;101326.94;5006857;28;97252;-74
2023/06/13 01:50:51;;;;;;;3.80;3.40;;;;;;;30.25;33.25;101317.56;5008073;28;96760;-75
2023/06/13 01:53:28;;;;;;;3.38;3.08;;;;;;;30.23;33.57;101316.94;4990240;28;99542;-74
2023/06/13 01:56:01;;;;;;;3.85;3.33;;;;;;;30.22;33.43;101315.25;5006572;28;97075;-74
2023/06/13 01:58:35;;;;;;;4.03;3.63;;;;;;;30.21;33.50;101310.78;5006403;28;97578;-74
2023/06/13 02:01:04;;;;;;;4.15;3.55;;;;;;;30.21;33.53;101319.09;5005265;28;100651;-75
2023/06/13 02:03:32;;;;;;;3.50;3.00;;;;;;;30.20;33.45;101308.25;5008201;28;97306;-74
2023/06/13 02:06:00;;;;;;;3.80;3.42;;;;;;;30.20;33.61;101311.84;5007805;28;96937;-74
2023/06/13 02:08:28;;;;;;;3.17;2.88;;;;;;;30.20;33.22;101309.09;5008587;28;97224;-74
2023/06/13 02:10:54;;;;;;;3.50;3.17;;;;;;;30.20;33.97;101308.25;4989001;28;99739;-74
2023/06/13 02:13:22;;;;;;;3.38;3.08;;;;;;;30.20;33.53;101306.31;5007799;28;96737;-74
2023/06/13 02:15:49;;;;;;;3.35;3.05;;;;;;;30.19;33.70;101304.63;5006250;28;97322;-74
2023/06/13 02:18:15;;;;;;;3.65;3.20;;;;;;;30.19;33.46;101307.41;5007886;28;98707;-74
2023/06/13 02:20:42;;;;;;;3.92;3.53;;;;;;;30.19;33.42;101303.78;5006004;28;98331;-74
2023/06/13 02:23:09;;;;;;;3.72;3.10;;;;;;;30.18;33.60;101300.16;5005960;28;97057;-74
2023/06/13 02:25:36;;;;;;;4.10;3.50;;;;;;;30.19;33.37;101310.16;5007122;28;96707;-74
2023/06/13 02:28:02;;;;;;;4.28;3.10;;;;;;;30.18;33.40;101308.47;5007800;28;97217;-74
2023/06/13 02:30:29;;;;;;;3.45;3.15;;;;;;;30.19;33.57;101312.94;5005707;28;97590;-74
2023/06/13 02:32:55;;;;;;;3.20;2.90;;;;;;;30.18;33.57;101302.94;5006052;28;96875;-75
2023/06/13 02:35:25;;;;;;;3.95;3.33;;;;;;;30.18;33.47;101300.16;5004917;28;97283;-73
2023/06/13 02:37:53;;;;;;;3.75;3.30;;;;;;;30.17;33.34;101304.00;4989466;28;96783;-74
2023/06/13 02:40:21;;;;;;;3.17;2.88;;;;;;;30.17;33.62;101311.47;5005683;28;96823;-74
2023/06/13 02:42:49;;;;;;;3.58;3.10;;;;;;;30.17;33.63;101306.78;5005515;28;99814;-74
2023/06/13 02:45:16;;;;;;;3.47;3.17;;;;;;;30.17;33.20;101312.31;5005318;28;96966;-74
2023/06/13 02:47:45;;;;;;;3.38;3.03;;;;;;;30.16;33.26;101305.06;5007577;28;96825;-74
2023/06/13 02:50:11;;;;;;;3.45;3.15;;;;;;;30.16;33.60;101302.31;5005470;28;97085;-74
2023/06/13 02:52:39;;;;;;;3.15;2.85;;;;;;;30.16;33.41;101304.22;4989588;28;97532;-74
2023/06/13 02:55:07;;;;;;;3.90;3.50;;;;;;;30.16;33.53;101312.53;5006244;28;96963;-74
2023/06/13 02:57:36;;;;;;;3.60;2.83;;;;;;;30.16;33.38;101310.63;5006825;28;96746;-73
2023/06/13 03:00:07;;;;;;;3.50;2.88;;;;;;;30.15;33.49;101303.38;5005217;28;98342;-74
2023/06/13 03:02:37;;;;;;;3.40;2.80;;;;;;;30.14;33.52;101310.00;5004800;28;96917;-74
2023/06/13 03:05:09;;;;;;;3.30;3.00;;;;;;;30.15;33.25;101297.00;5004784;28;97340;-75
2023/06/13 03:07:42;;;;;;;3.25;2.95;;;;;;;30.14;33.39;101301.69;5004804;28;96855;-74
2023/06/13 03:10:10;;;;;;;3.60;2.80;;;;;;;30.14;33.36;101300.84;5004378;28;97862;-74
2023/06/13 03:12:40;;;;;;;3.13;2.83;;;;;;;30.13;33.22;101305.53;5007362;28;96789;-74
2023/06/13 03:15:08;;;;;;;4.03;2.80;;;;;;;30.14;33.30;101306.38;5008456;28;96652;-74
2023/06/13 03:17:35;;;;;;;3.40;2.88;;;;;;;30.13;33.50;101313.00;5009101;28;97140;-74
2023/06/13 03:20:05;;;;;;;3.70;2.70;;;;;;;30.15;33.10;101313.63;5008858;28;99484;-74
2023/06/13 03:22:34;;;;;;;3.72;3.17;;;;;;;30.13;33.41;101308.31;5007306;28;100425;-73
2023/06/13 03:25:04;;;;;;;3.22;2.72;;;;;;;30.13;33.48;101313.00;5009568;28;97733;-74
2023/06/13 03:27:37;;;;;;;2.90;2.60;;;;;;;30.12;33.38;101309.38;5007793;28;96895;-73
2023/06/13 03:30:05;;;;;;;2.83;2.60;;;;;;;30.13;33.36;101313.00;5008098;28;99272;-74
2023/06/13 03:32:32;;;;;;;4.30;3.10;;;;;;;30.12;33.22;101317.69;4992303;28;98269;-74
2023/06/13 03:35:00;;;;;;;3.67;3.05;;;;;;;30.11;33.61;101307.69;5007861;28;96950;-74
2023/06/13 03:37:27;;;;;;;2.97;2.65;;;;;;;30.11;33.66;101307.69;5005546;28;96948;-74
2023/06/13 03:39:54;;;;;;;3.00;2.70;;;;;;;30.11;33.43;101310.44;5009788;28;97599;-74
2023/06/13 03:42:20;;;;;;;3.40;2.55;;;;;;;30.11;33.46;101306.84;5008439;28;100217;-74
2023/06/13 03:44:48;;;;;;;2.80;2.60;;;;;;;30.10;33.05;101308.75;5009678;28;96672;-74
2023/06/13 03:47:15;;;;;;;3.10;2.60;;;;;;;30.11;33.16;101313.22;5007712;28;96718;-73
2023/06/13 03:49:43;;;;;;;2.92;2.63;;;;;;;30.10;33.44;101308.75;5008009;28;100178;-74
2023/06/13 03:52:11;;;;;;;3.13;2.70;;;;;;;30.10;33.66;101311.53;5007783;28;96641;-74
2023/06/13 03:54:38;;;;;;;3.38;2.70;;;;;;;30.10;33.25;101297.69;5007700;28;96683;-74
2023/06/13 03:57:06;;;;;;;2.88;2.53;;;;;;;30.10;33.34;101303.22;4996847;28;96891;-74
2023/06/13 03:59:34;;;;;;;2.95;2.53;;;;;;;30.10;33.48;101307.91;5009200;28;98082;-74
2023/06/13 04:02:00;;;;;;;4.38;2.85;;;;;;;30.10;33.39;101302.38;5008421;28;96612;-74
2023/06/13 04:04:27;;;;;;;2.85;2.55;;;;;;;30.10;33.14;101314.28;5009758;28;96950;-74
2023/06/13 04:06:55;;;;;;;3.63;2.83;;;;;;;30.10;33.32;101307.91;4998198;28;97219;-74
2023/06/13 04:09:25;;;;;;;2.97;2.67;;;;;;;30.10;33.28;101305.13;5005466;28;101280;-74
2023/06/13 04:11:52;;;;;;;3.30;2.42;;;;;;;30.09;33.45;101318.13;5008445;28;98999;-73
2023/06/13 04:14:19;;;;;;;2.85;2.55;;;;;;;30.09;33.44;101317.28;4990530;28;97239;-74
2023/06/13 04:16:46;;;;;;;2.90;2.60;;;;;;;30.09;33.48;101318.13;5009927;28;96847;-74
2023/06/13 04:19:18;;;;;;;3.13;2.58;;;;;;;30.10;33.39;101322.59;4990238;28;100757;-74
2023/06/13 04:21:48;;;;;;;3.00;2.70;;;;;;;30.08;33.22;101321.97;5002667;28;96789;-74
2023/06/13 04:24:14;;;;;;;2.90;2.38;;;;;;;30.09;33.32;101329.22;5007471;28;96812;-74
2023/06/13 04:26:47;;;;;;;2.95;2.65;;;;;;;30.09;33.39;101320.91;5007927;28;97046;-74
2023/06/13 04:29:15;;;;;;;3.10;2.80;;;;;;;30.09;33.58;101325.59;4995070;28;100589;-74
2023/06/13 04:31:43;;;;;;;2.90;2.60;;;;;;;30.09;33.25;101326.44;4991703;28;97106;-74
2023/06/13 04:34:11;;;;;;;2.78;2.50;;;;;;;30.09;33.32;101329.22;5007734;28;96816;-74
2023/06/13 04:36:41;;;;;;;3.10;2.47;;;;;;;30.09;33.32;101317.28;5009249;28;96852;-74
2023/06/13 04:39:08;;;;;;;4.05;2.60;;;;;;;30.09;33.26;101322.84;5005858;28;97178;-74
2023/06/13 04:41:43;;;;;;;3.65;2.70;;;;;;;30.09;33.37;101326.44;5007522;28;97678;-74
2023/06/13 04:44:10;;;;;;;2.80;2.60;;;;;;;30.08;33.20;101324.75;5007244;28;96973;-74
2023/06/13 04:46:43;;;;;;;2.60;2.40;;;;;;;30.10;33.22;101330.06;5007878;28;96820;-74
2023/06/13 04:49:09;;;;;;;2.40;2.20;;;;;;;30.08;33.28;101327.53;5008748;28;97133;-74
2023/06/13 04:51:36;;;;;;;2.55;2.35;;;;;;;30.09;33.32;101332.00;5008348;28;96807;-74
2023/06/13 04:54:08;;;;;;;2.97;2.70;;;;;;;30.09;33.44;101332.00;5008352;28;96714;-74
2023/06/13 04:56:37;;;;;;;3.28;2.28;;;;;;;30.08;33.44;101326.69;5009610;28;96978;-74
2023/06/13 04:59:07;;;;;;;2.60;2.40;;;;;;;30.10;33.23;101338.38;5009388;28;97383;-74
2023/06/13 05:01:34;;;;;;;2.72;2.50;;;;;;;30.08;33.33;101338.59;5008732;28;96969;-74
2023/06/13 05:04:00;;;;;;;2.55;2.33;;;;;;;30.10;33.42;101343.91;5008484;28;96845;-74
2023/06/13 05:06:29;;;;;;;3.15;2.55;;;;;;;30.10;33.37;101344.78;5008408;28;97530;-74
2023/06/13 05:08:56;;;;;;;2.53;2.33;;;;;;;30.10;33.27;101346.69;5008673;28;98722;-74
2023/06/13 05:11:23;;;;;;;2.85;2.47;;;;;;;30.10;33.20;101346.69;5009205;28;97376;-75
2023/06/13 05:13:50;;;;;;;2.97;2.50;;;;;;;30.10;33.43;101342.00;5008782;28;96778;-73
2023/06/13 05:16:17;;;;;;;2.55;2.25;;;;;;;30.11;33.44;101340.06;5008067;28;97377;-75
2023/06/13 05:18:49;;;;;;;3.00;2.40;;;;;;;30.10;33.18;101335.59;5007460;28;96918;-75
2023/06/13 05:21:16;;;;;;;2.53;2.20;;;;;;;30.11;33.61;101348.38;5007302;28;97025;-74
2023/06/13 05:23:44;;;;;;;2.60;2.40;;;;;;;30.10;33.21;101344.78;5005498;28;96870;-74
2023/06/13 05:26:11;;;;;;;2.65;2.40;;;;;;;30.11;33.23;101346.47;5008621;28;96632;-74
2023/06/13 05:28:38;;;;;;;3.00;2.38;;;;;;;30.11;33.22;101340.91;5005616;28;98000;-74
2023/06/13 05:31:04;;;;;;;3.03;2.38;;;;;;;30.11;33.81;101342.84;5007814;28;97153;-75
2023/06/13 05:33:33;;;;;;;2.50;2.30;;;;;;;30.11;33.33;101337.31;5007378;28;96918;-74
2023/06/13 05:36:00;;;;;;;2.63;2.25;;;;;;;30.10;33.37;101342.00;5006812;28;98878;-74
2023/06/13 05:38:26;;;;;;;2.60;2.40;;;;;;;30.11;33.29;101338.16;5007642;28;97612;-74
2023/06/13 05:40:53;;;;;;;2.20;2.00;;;;;;;30.11;33.39;101337.31;5007047;28;98046;-74
2023/06/13 05:43:20;;;;;;;2.42;2.22;;;;;;;30.11;33.16;101340.91;5006691;28;97123;-75
2023/06/13 05:45:50;;;;;;;2.42;2.20;;;;;;;30.12;33.70;101339.84;5008574;28;97039;-74
2023/06/13 05:48:17;;;;;;;2.55;2.17;;;;;;;30.12;33.49;101344.53;5007542;28;97833;-74
2023/06/13 05:50:43;;;;;;;2.38;2.17;;;;;;;30.12;33.41;101344.53;5006394;28;99134;-74
2023/06/13 05:53:10;;;;;;;2.28;2.08;;;;;;;30.12;33.42;101342.63;5007601;28;96931;-75
2023/06/13 05:55:37;;;;;;;2.63;2.28;;;;;;;30.13;33.24;101335.16;5007546;28;96945;-74
2023/06/13 05:58:03;;;;;;;2.72;2.47;;;;;;;30.12;33.22;101339.84;5007701;28;97269;-75
2023/06/13 06:00:30;;;;;;;2.40;2.20;;;;;;;30.11;33.44;101338.16;5007378;28;97643;-74
2023/06/13 06:02:59;;;;;;;2.40;2.20;;;;;;;30.12;33.36;101339.84;5007563;28;97213;-75
2023/06/13 06:05:29;;;;;;;2.60;2.40;;;;;;;30.12;33.31;101342.63;5007579;28;97155;-75
2023/06/13 06:07:55;;;;;;;2.45;2.05;;;;;;;30.12;33.15;101345.38;5006644;28;96722;-75
2023/06/13 06:10:22;;;;;;;2.53;2.13;;;;;;;30.12;33.49;101344.53;5006831;28;98531;-75
2023/06/13 06:12:49;;;;;;;2.53;2.30;;;;;;;30.12;33.29;101344.53;5008374;28;97209;-75
2023/06/13 06:15:15;;;;;;;2.40;2.20;;;;;;;30.12;33.26;101345.38;5006249;28;96858;-74
2023/06/13 06:17:42;;;;;;;2.40;2.20;;;;;;;30.13;33.33;101354.56;5007424;28;98177;-75
2023/06/13 06:20:10;;;;;;;1.90;1.70;;;;;;;30.14;33.21;101347.94;5006522;28;96762;-75
2023/06/13 06:22:36;;;;;;;2.85;2.25;;;;;;;30.12;33.17;101348.16;5007313;28;97073;-75
2023/06/13 06:25:03;;;;;;;2.88;2.50;;;;;;;30.13;33.26;101352.63;5006404;28;97177;-74
2023/06/13 06:27:30;;;;;;;2.83;2.38;;;;;;;30.13;33.15;101346.25;5007788;28;96801;-74
2023/06/13 06:29:57;;;;;;;2.50;2.30;;;;;;;30.13;33.51;101354.56;5006919;28;96708;-75
2023/06/13 06:32:23;;;;;;;2.60;2.20;;;;;;;30.13;33.33;101358.16;4994623;28;96757;-74
2023/06/13 06:34:50;;;;;;;2.20;2.00;;;;;;;30.14;33.24;101348.78;5006672;28;97091;-73
2023/06/13 06:37:16;;;;;;;2.35;2.15;;;;;;;30.14;33.38;101351.56;5006987;28;97480;-74
2023/06/13 06:39:43;;;;;;;2.40;2.05;;;;;;;30.14;33.46;101351.56;5007125;28;97313;-74
2023/06/13 06:42:10;;;;;;;2.40;2.20;;;;;;;30.13;33.31;101355.41;5006995;28;97344;-73
2023/06/13 06:44:54;;;;;;;2.20;2.00;;;;;;;30.12;33.26;101356.47;4998066;28;96729;-73
2023/06/13 06:47:21;;;;;;;2.63;2.42;;;;;;;30.14;33.35;101350.69;5006532;28;97860;-73
2023/06/13 06:49:47;;;;;;;3.13;2.17;;;;;;;30.14;33.18;101347.94;4988245;28;99759;-74
2023/06/13 06:52:14;;;;;;;2.33;2.13;;;;;;;30.14;33.55;101351.56;5006684;28;97255;-73
2023/06/13 06:54:40;;;;;;;2.53;2.33;;;;;;;30.14;33.43;101354.31;4987803;28;96684;-73
2023/06/13 06:57:07;;;;;;;2.20;2.00;;;;;;;30.14;33.26;101357.09;5007619;28;97452;-73
2023/06/13 06:59:33;;;;;;;2.55;2.15;;;;;;;30.13;33.19;101352.63;5006616;28;97319;-73
2023/06/13 07:02:00;;;;;;;2.83;1.98;;;;;;;30.15;33.19;101355.16;5007362;28;97267;-73
2023/06/13 07:04:27;;;;;;;2.60;2.10;;;;;;;30.15;33.26;101352.41;4998234;28;96842;-74
2023/06/13 07:06:54;;;;;;;2.47;2.28;;;;;;;30.14;33.09;101359.88;5000004;28;97623;-74
2023/06/13 07:09:20;;;;;;;3.25;2.72;;;;;;;30.15;33.19;101356.03;5006037;28;96733;-73
2023/06/13 07:11:47;;;;;;;2.40;2.20;;;;;;;30.15;33.03;101356.03;5007036;28;96734;-73
2023/06/13 07:14:14;;;;;;;2.38;1.90;;;;;;;30.15;33.20;101356.03;5005875;28;96762;-73
2023/06/13 07:16:41;;;;;;;2.65;2.10;;;;;;;30.16;33.03;101349.41;5005331;28;96897;-72
2023/06/13 07:19:10;;;;;;;2.28;1.98;;;;;;;30.16;33.23;101343.88;5004815;28;97469;-74
2023/06/13 07:21:36;;;;;;;2.47;2.03;;;;;;;30.17;33.18;101355.78;5006815;28;97007;-74
2023/06/13 07:24:03;;;;;;;2.47;2.25;;;;;;;30.16;33.32;101357.72;5006124;28;96834;-73
2023/06/13 07:26:35;;;;;;;2.38;2.15;;;;;;;30.16;33.15;101360.47;4997646;28;97117;-74
2023/06/13 07:29:02;;;;;;;3.35;2.20;;;;;;;30.16;33.50;101359.63;5006682;28;97494;-74
2023/06/13 07:31:29;;;;;;;2.22;2.00;;;;;;;30.16;33.31;101359.63;5006352;28;97301;-74
2023/06/13 07:33:56;;;;;;;4.03;2.35;;;;;;;30.17;33.14;101359.41;4997114;28;96781;-74
2023/06/13 07:36:22;;;;;;;3.53;2.00;;;;;;;30.17;33.19;101361.34;5005444;28;97429;-74
2023/06/13 07:38:51;;;;;;;2.70;2.40;;;;;;;30.18;33.23;101363.03;5005171;28;97175;-72
2023/06/13 07:41:18;;;;;;;2.40;2.20;;;;;;;30.16;33.25;101357.72;5004844;28;96640;-74
2023/06/13 07:43:45;;;;;;;2.33;2.13;;;;;;;30.17;33.25;101356.63;5006242;28;96742;-73
2023/06/13 07:46:11;;;;;;;2.40;2.10;;;;;;;30.17;33.27;101364.94;5005806;28;97633;-73
2023/06/13 07:48:38;;;;;;;2.10;1.90;;;;;;;30.17;33.21;101356.63;5006155;28;97870;-73
2023/06/13 07:51:05;;;;;;;2.20;2.00;;;;;;;30.17;32.93;101355.78;5004927;28;96822;-74
2023/06/13 07:53:32;;;;;;;2.38;2.17;;;;;;;30.17;33.01;101353.88;5004570;28;96795;-73
2023/06/13 07:55:58;;;;;;;2.67;2.10;;;;;;;30.18;33.19;101357.50;5006003;28;96636;-74
2023/06/13 07:58:25;;;;;;;2.42;2.22;;;;;;;30.18;33.17;101355.56;5008508;28;97925;-74
2023/06/13 08:00:52;;;;;;;2.20;2.00;;;;;;;30.19;33.17;101353.66;5009457;28;97273;-73
2023/06/13 08:03:18;;;;;;;2.50;1.92;;;;;;;30.19;33.05;101354.50;5010188;28;96860;-73
2023/06/13 08:05:47;;;;;;;3.05;2.30;;;;;;;30.18;33.14;101355.56;5007640;28;98320;-73
2023/06/13 08:08:14;;;;;;;2.63;2.17;;;;;;;30.18;32.97;101351.94;5010222;28;97440;-73
2023/06/13 08:10:41;;;;;;;2.45;2.20;;;;;;;30.18;33.14;101355.56;5009446;28;96660;-74
2023/06/13 08:13:07;;;;;;;2.28;2.05;;;;;;;30.19;33.09;101350.88;5010235;28;97242;-74
2023/06/13 08:15:37;;;;;;;2.40;1.85;;;;;;;30.19;33.05;101351.72;5007035;28;98986;-73
2023/06/13 08:18:04;;;;;;;2.47;2.28;;;;;;;30.19;33.06;101350.88;5009275;28;97301;-73
2023/06/13 08:20:31;;;;;;;2.33;2.13;;;;;;;30.19;33.07;101360.03;5008913;28;97766;-74
2023/06/13 08:22:59;;;;;;;2.90;2.08;;;;;;;30.19;33.09;101353.66;5009694;28;96909;-73
2023/06/13 08:25:25;;;;;;;2.65;2.15;;;;;;;30.19;33.03;101362.81;5009119;28;97838;-74
2023/06/13 08:27:52;;;;;;;2.35;2.15;;;;;;;30.19;32.81;101348.94;5008447;28;96866;-73
2023/06/13 08:30:19;;;;;;;2.10;1.90;;;;;;;30.19;32.92;101354.50;4996224;28;96775;-74
2023/06/13 08:32:46;;;;;;;3.28;2.28;;;;;;;30.19;32.90;101351.72;5009343;28;97030;-74
2023/06/13 08:35:13;;;;;;;2.47;2.28;;;;;;;30.19;32.92;101357.25;5008610;28;97688;-73
2023/06/13 08:37:41;;;;;;;3.28;2.10;;;;;;;30.20;32.77;101352.56;5009732;28;96771;-74
2023/06/13 08:40:09;;;;;;;2.75;2.20;;;;;;;30.21;32.96;101359.81;5008240;28;96829;-73
2023/06/13 08:42:37;;;;;;;3.42;2.33;;;;;;;30.20;32.97;101358.97;5009208;28;97234;-73
2023/06/13 08:45:08;;;;;;;2.45;2.10;;;;;;;30.21;32.67;101349.56;5008888;28;97181;-74
2023/06/13 08:47:35;;;;;;;2.95;2.30;;;;;;;30.20;32.77;101350.66;5009086;28;96604;-74
2023/06/13 08:50:08;;;;;;;2.38;2.17;;;;;;;30.21;32.77;101346.81;5009372;28;96708;-73
2023/06/13 08:52:40;;;;;;;3.85;2.20;;;;;;;30.21;32.58;101352.34;5009409;28;96757;-74
2023/06/13 08:55:11;;;;;;;2.45;2.17;;;;;;;30.21;32.99;101348.72;5002057;28;97911;-73
2023/06/13 08:58:00;;;;;;;2.30;2.10;;;;;;;30.20;32.85;101347.03;5005814;28;96827;-74
2023/06/13 09:00:28;;;;;;;2.72;2.05;;;;;;;30.20;33.01;101344.25;5008583;28;97057;-73
2023/06/13 09:02:56;;;;;;;2.42;2.22;;;;;;;30.20;32.90;101339.56;5009452;28;96742;-73
2023/06/13 09:05:23;;;;;;;3.03;2.22;;;;;;;30.21;32.71;101348.72;5009580;28;96859;-73
2023/06/13 09:07:54;;;;;;;2.47;2.28;;;;;;;30.21;32.75;101337.63;5007403;28;98685;-74
2023/06/13 09:10:34;;;;;;;2.40;2.20;;;;;;;30.20;32.77;101336.78;5007752;28;96830;-74
2023/06/13 09:13:02;;;;;;;2.47;2.10;;;;;;;30.21;32.72;101334.88;5004845;28;96827;-73
2023/06/13 09:15:29;;;;;;;2.30;2.10;;;;;;;30.21;33.01;101337.63;5007323;28;97439;-74
2023/06/13 09:17:57;;;;;;;2.53;2.15;;;;;;;30.21;32.62;101338.50;5005143;28;97509;-74
2023/06/13 09:20:24;;;;;;;3.70;2.10;;;;;;;30.21;32.84;101332.94;5009196;28;96760;-74
2023/06/13 09:22:51;;;;;;;2.47;2.28;;;;;;;30.21;32.71;101338.50;5008682;28;96898;-74
2023/06/13 09:25:21;;;;;;;2.67;2.30;;;;;;;30.22;32.63;101337.41;5008748;28;97552;-75
2023/06/13 09:27:48;;;;;;;2.97;2.47;;;;;;;30.22;32.51;101339.34;5009616;28;96665;-73
2023/06/13 09:30:15;;;;;;;4.22;2.00;;;;;;;30.23;32.76;101335.50;5005375;28;96750;-73
2023/06/13 09:32:51;;;;;;;2.55;2.17;;;;;;;30.22;32.57;101337.41;4990721;28;97264;-73
2023/06/13 09:35:19;;;;;;;2.85;2.17;;;;;;;30.22;32.68;101334.66;5007962;28;97254;-73
2023/06/13 09:38:01;;;;;;;2.42;2.20;;;;;;;30.22;32.44;101342.97;5009295;28;96740;-74
2023/06/13 09:40:28;;;;;;;2.30;2.10;;;;;;;30.22;32.67;101334.66;5008261;28;97465;-74
2023/06/13 09:42:56;;;;;;;2.55;2.30;;;;;;;30.22;32.59;101337.41;5011039;28;96697;-74
2023/06/13 09:45:31;;;;;;;2.40;2.20;;;;;;;30.22;32.54;101333.81;5009962;28;96891;-74
2023/06/13 09:47:58;;;;;;;2.28;2.03;;;;;;;30.22;32.60;101331.03;5008701;28;97340;-74
2023/06/13 09:50:25;;;;;;;3.00;2.13;;;;;;;30.21;32.51;101327.41;5008694;28;97037;-73
2023/06/13 09:52:51;;;;;;;2.85;2.25;;;;;;;30.22;32.34;101329.09;5009067;28;97081;-73
2023/06/13 09:55:20;;;;;;;2.83;2.50;;;;;;;30.23;32.57;101328.03;5007120;28;97918;-72
2023/06/13 09:57:51;;;;;;;2.38;2.05;;;;;;;30.22;32.49;101326.34;5006565;28;97890;-73
2023/06/13 10:00:38;;;;;;;2.90;2.20;;;;;;;30.21;32.67;101327.41;5007677;28;96854;-74
2023/06/13 10:03:05;;;;;;;2.35;2.15;;;;;;;30.21;32.41;101327.41;5007425;28;98001;-74
2023/06/13 10:05:46;;;;;;;2.85;2.20;;;;;;;30.21;32.46;101324.63;5006208;28;98070;-73
2023/06/13 10:08:13;;;;;;;2.65;2.30;;;;;;;30.22;32.57;101329.09;4998400;28;96877;-74
2023/06/13 10:10:40;;;;;;;2.40;2.20;;;;;;;30.22;32.39;101329.09;5002650;28;96971;-73
2023/06/13 10:13:15;;;;;;;2.72;2.33;;;;;;;30.24;32.60;101326.09;5000037;28;96834;-74
2023/06/13 10:15:50;;;;;;;2.72;2.40;;;;;;;30.24;32.54;101315.03;4990534;28;97483;-74
2023/06/13 10:18:20;;;;;;;2.28;1.92;;;;;;;30.22;32.68;101323.56;5004572;28;98450;-73
2023/06/13 10:20:48;;;;;;;4.95;2.50;;;;;;;30.24;32.37;101326.09;5004766;28;96962;-73
2023/06/13 10:23:18;;;;;;;2.42;2.20;;;;;;;30.23;32.44;101319.72;5006910;28;96864;-73
2023/06/13 10:25:51;;;;;;;3.00;2.35;;;;;;;30.25;32.41;101327.81;5005790;28;96869;-73
2023/06/13 10:28:26;;;;;;;2.53;2.25;;;;;;;30.24;32.33;101315.03;5002056;28;97865;-73
2023/06/13 10:31:13;;;;;;;2.65;2.05;;;;;;;30.25;32.39;101311.19;5006516;28;97385;-74
2023/06/13 10:33:55;;;;;;;2.55;2.28;;;;;;;30.24;32.44;101317.78;5005736;28;96840;-73
2023/06/13 10:36:45;;;;;;;2.53;2.33;;;;;;;30.23;32.48;101321.63;4999862;28;98180;-74
2023/06/13 10:39:34;;;;;;;3.17;2.20;;;;;;;30.23;32.40;101308.63;4996906;28;97347;-74
2023/06/13 10:42:12;;;;;;;4.05;2.40;;;;;;;30.24;32.37;101306.72;4998198;28;97588;-74
2023/06/13 10:44:59;;;;;;;3.67;2.22;;;;;;;30.24;32.34;101306.72;5004311;28;97510;-74
2023/06/13 10:47:29;;;;;;;2.72;2.10;;;;;;;30.22;32.32;101306.94;5005390;28;97311;-74
2023/06/13 10:49:57;;;;;;;4.75;2.67;;;;;;;30.22;32.35;101306.94;5003657;28;99558;-73
2023/06/13 10:52:24;;;;;;;2.92;2.60;;;;;;;30.23;32.38;101308.63;5003596;28;96882;-73
2023/06/13 10:55:01;;;;;;;2.95;2.50;;;;;;;30.24;32.45;101303.94;5004884;28;96863;-74
2023/06/13 10:58:00;;;;;;;2.47;2.22;;;;;;;30.24;32.45;101299.25;5004192;28;97650;-73
2023/06/13 11:00:44;;;;;;;3.65;2.42;;;;;;;30.22;32.28;101301.41;4996479;28;97759;-74
2023/06/13 11:03:13;;;;;;;2.80;2.42;;;;;;;30.22;32.39;101297.78;5007078;28;96947;-74
2023/06/13 11:05:46;;;;;;;3.40;2.65;;;;;;;30.24;32.46;101292.84;5005006;28;97478;-73
2023/06/13 11:08:16;;;;;;;3.42;2.50;;;;;;;30.23;32.42;101294.78;5005192;28;100733;-74
2023/06/13 11:10:44;;;;;;;4.28;2.50;;;;;;;30.24;32.28;101298.41;5005981;28;97885;-73
2023/06/13 11:13:22;;;;;;;3.33;2.40;;;;;;;30.26;32.38;101296.25;4996340;28;96925;-73
2023/06/13 11:15:53;;;;;;;2.92;2.17;;;;;;;30.25;32.42;101292.63;5005960;28;96936;-73
2023/06/13 11:18:20;;;;;;;3.10;2.42;;;;;;;30.25;32.36;101280.69;5006902;28;96794;-74
2023/06/13 11:20:52;;;;;;;4.57;2.70;;;;;;;30.25;32.19;101286.25;5004881;28;98322;-73
2023/06/13 11:23:23;;;;;;;3.75;2.53;;;;;;;30.26;32.15;101280.47;5006322;28;97165;-73
2023/06/13 11:25:51;;;;;;;4.32;2.47;;;;;;;30.25;32.38;101278.78;5006338;28;96779;-73
2023/06/13 11:28:21;;;;;;;2.70;2.28;;;;;;;30.25;32.14;101276.00;5006695;28;96695;-74
2023/06/13 11:30:48;;;;;;;4.03;3.10;;;;;;;30.26;32.10;101279.63;4993104;28;97019;-73
2023/06/13 11:33:16;;;;;;;4.07;2.53;;;;;;;30.26;32.05;101274.94;5005155;28;96732;-74